Time;durP1;ratioP1;P1;durP2;ratioP2;P2;SDS_P1;SDS_P2;PMS_P1;PMS_P2;Temp;Humidity;BMP_temperature;BMP_pressure;BME280_temperature;BME280_humidity;BME280_pressure;Samples;Min_cycle;Max_cycle;Signal;HPM_P1;HPM_P2
2022/08/03 00:00:10;;;;;;;;;;;;;;;19.96;100.00;100891.31;4962762;28;20298;-86
2022/08/03 00:02:41;;;;;;;;;;;;;;;19.90;100.00;100895.44;4977519;28;19922;-87
2022/08/03 00:05:15;;;;;;;;;;;;;;;19.91;100.00;100897.03;4960040;28;20306;-88
2022/08/03 00:07:43;;;;;;;;;;;;;;;19.87;100.00;100893.31;4969872;28;19929;-88
2022/08/03 00:10:16;;;;;;;;;;;;;;;19.84;100.00;100894.81;4934230;29;19946;-87
2022/08/03 00:12:44;;;;;;;;;;;;;;;19.80;100.00;100893.06;4956581;29;20361;-88
2022/08/03 00:15:12;;;;;;;;;;;;;;;19.77;100.00;100897.28;4949283;29;19930;-88
2022/08/03 00:17:45;;;;;;;;;;;;;;;19.72;100.00;100900.25;4938817;29;19934;-88
2022/08/03 00:20:13;;;;;;;;;;;;;;;19.69;100.00;100887.94;4937164;29;20371;-87
2022/08/03 00:22:42;;;;;;;;;;;;;;;19.71;100.00;100891.16;4955360;28;19922;-88
2022/08/03 00:25:10;;;;;;;;;;;;;;;19.70;100.00;100892.28;4959227;28;20316;-88
2022/08/03 00:27:43;;;;;;;;;;;;;;;19.66;100.00;100887.78;4947078;29;19929;-88
2022/08/03 00:30:16;;;;;;;;;;;;;;;19.73;100.00;100881.72;4940720;29;20291;-88
2022/08/03 00:32:44;;;;;;;;;;;;;;;19.65;100.00;100888.94;4956543;29;20383;-88
2022/08/03 00:35:12;;;;;;;;;;;;;;;19.66;100.00;100880.31;4957498;29;19922;-88
2022/08/03 00:37:46;;;;;;;;;;;;;;;19.65;100.00;100884.22;4952133;29;19926;-88
2022/08/03 00:40:20;;;;;;;;;;;;;;;19.65;100.00;100891.69;4954461;29;19922;-88
2022/08/03 00:42:53;;;;;;;;;;;;;;;19.62;100.00;100890.41;4956372;29;19926;-89
2022/08/03 00:45:28;;;;;;;;;;;;;;;19.58;100.00;100888.66;4957858;28;19923;-88
2022/08/03 00:47:56;;;;;;;;;;;;;;;19.56;100.00;100880.72;4955410;29;19923;-89
2022/08/03 00:50:25;;;;;;;;;;;;;;;19.58;100.00;100885.91;4957499;29;19929;-89
2022/08/03 00:53:00;;;;;;;;;;;;;;;19.52;100.00;100880.56;4956103;29;19922;-88
2022/08/03 00:55:29;;;;;;;;;;;;;;;19.41;100.00;100882.13;4956173;29;19922;-89
2022/08/03 00:57:58;;;;;;;;;;;;;;;19.35;100.00;100875.19;4955728;29;19930;-88
2022/08/03 01:00:31;;;;;;;;;;;;;;;19.32;100.00;100876.66;4956152;29;19922;-88
2022/08/03 01:03:04;;;;;;;;;;;;;;;19.31;100.00;100874.25;4955927;29;19922;-88
2022/08/03 01:05:35;;;;;;;;;;;;;;;19.30;100.00;100867.91;4959267;28;19923;-88
2022/08/03 01:08:14;;;;;;;;;;;;;;;19.25;100.00;100870.88;4952051;29;19922;-88
2022/08/03 01:10:52;;;;;;;;;;;;;;;19.24;100.00;100865.66;4957190;29;19923;-89
2022/08/03 01:13:28;;;;;;;;;;;;;;;19.23;100.00;100867.63;4957313;29;20565;-88
2022/08/03 01:15:59;;;;;;;;;;;;;;;19.24;100.00;100865.66;4955231;29;19933;-88
2022/08/03 01:18:32;;;;;;;;;;;;;;;19.16;100.00;100857.13;4957154;28;19922;-88
2022/08/03 01:21:03;;;;;;;;;;;;;;;19.22;100.00;100862.44;4942311;29;19930;-88
2022/08/03 01:23:49;;;;;;;;;;;;;;;19.23;100.00;100867.63;4953731;29;19949;-88
2022/08/03 01:26:34;;;;;;;;;;;;;;;19.18;100.00;100859.53;4957191;29;19930;-88
2022/08/03 01:29:08;;;;;;;;;;;;;;;19.21;100.00;100864.41;4957632;29;19933;-84
2022/08/03 01:31:44;;;;;;;;;;;;;;;19.23;100.00;100859.34;4941418;28;19926;-84
2022/08/03 01:34:19;;;;;;;;;;;;;;;19.26;100.00;100861.44;4949697;29;19930;-84
2022/08/03 01:36:53;;;;;;;;;;;;;;;19.28;100.00;100859.16;4954595;29;19923;-84
2022/08/03 01:39:29;;;;;;;;;;;;;;;19.28;100.00;100859.16;4938638;29;19933;-84
2022/08/03 01:41:58;;;;;;;;;;;;;;;19.36;100.00;100854.72;4956309;29;19922;-84
2022/08/03 01:44:35;;;;;;;;;;;;;;;19.37;100.00;100859.91;4954852;29;20303;-84
2022/08/03 01:47:11;;;;;;;;;;;;;;;19.29;100.00;100854.44;4954971;29;19922;-86
2022/08/03 01:49:40;;;;;;;;;;;;;;;19.29;100.00;100849.75;4972763;28;19944;-83
2022/08/03 01:52:14;;;;;;;;;;;;;;;19.23;100.00;100847.53;4957986;28;19922;-83
2022/08/03 01:54:43;;;;;;;;;;;;;;;19.13;100.00;100848.72;4957806;28;19929;-84
2022/08/03 01:57:17;;;;;;;;;;;;;;;19.13;100.00;100848.72;4973266;28;19926;-84
2022/08/03 01:59:50;;;;;;;;;;;;;;;19.06;100.00;100852.00;4958112;28;20298;-83
2022/08/03 02:02:21;;;;;;;;;;;;;;;18.99;100.00;100843.44;4972017;28;19929;-84
2022/08/03 02:04:56;;;;;;;;;;;;;;;18.83;100.00;100852.22;4936507;29;19923;-84
2022/08/03 02:07:30;;;;;;;;;;;;;;;18.82;100.00;100856.16;4950264;29;19922;-83
2022/08/03 02:09:58;;;;;;;;;;;;;;;18.80;100.00;100850.16;4955696;28;20295;-83
2022/08/03 02:12:28;;;;;;;;;;;;;;;18.82;100.00;100849.81;4934546;29;19927;-84
2022/08/03 02:14:56;;;;;;;;;;;;;;;18.78;100.00;100846.94;4948592;29;20003;-83
2022/08/03 02:17:27;;;;;;;;;;;;;;;18.74;100.00;100857.00;4956016;28;19929;-84
2022/08/03 02:20:02;;;;;;;;;;;;;;;18.67;100.00;100848.41;4950041;29;19930;-83
2022/08/03 02:22:35;;;;;;;;;;;;;;;18.72;100.00;100851.00;4956155;29;19922;-84
2022/08/03 02:25:09;;;;;;;;;;;;;;;18.66;100.00;100849.56;4955623;29;19922;-84
2022/08/03 02:27:50;;;;;;;;;;;;;;;18.55;100.00;100846.38;4955621;29;19922;-83
2022/08/03 02:30:27;;;;;;;;;;;;;;;18.53;100.00;100843.94;4951106;28;19930;-83
2022/08/03 02:33:01;;;;;;;;;;;;;;;18.46;100.00;100832.63;4955049;29;20379;-83
2022/08/03 02:35:30;;;;;;;;;;;;;;;18.48;100.00;100837.81;4960507;28;19926;-84
2022/08/03 02:38:00;;;;;;;;;;;;;;;18.36;100.00;100833.78;4948248;29;19923;-84
2022/08/03 02:40:34;;;;;;;;;;;;;;;18.32;100.00;100832.81;4950630;29;19969;-86
2022/08/03 02:43:08;;;;;;;;;;;;;;;18.31;100.00;100825.72;4938976;29;19930;-84
2022/08/03 02:45:42;;;;;;;;;;;;;;;18.33;100.00;100828.13;4954025;28;20041;-84
2022/08/03 02:48:17;;;;;;;;;;;;;;;18.20;100.00;100824.41;4951784;29;19926;-84
2022/08/03 02:50:52;;;;;;;;;;;;;;;18.26;100.00;100834.13;4935902;28;20295;-85
2022/08/03 02:53:21;;;;;;;;;;;;;;;18.13;100.00;100829.63;4933322;29;20268;-84
2022/08/03 02:55:50;;;;;;;;;;;;;;;18.16;100.00;100829.78;4954647;29;19922;-84
2022/08/03 02:58:20;;;;;;;;;;;;;;;18.13;100.00;100821.38;4948724;29;20319;-84
2022/08/03 03:00:53;;;;;;;;;;;;;;;18.10;100.00;100828.34;4952689;29;19945;-83
2022/08/03 03:03:27;;;;;;;;;;;;;;;18.08;100.00;100827.88;4936429;29;19929;-84
2022/08/03 03:05:56;;;;;;;;;;;;;;;18.08;100.00;100821.56;4946555;29;19926;-83
2022/08/03 03:08:26;;;;;;;;;;;;;;;18.01;100.00;100822.06;4937821;28;20041;-84
2022/08/03 03:11:00;;;;;;;;;;;;;;;17.94;100.00;100822.53;4948537;29;19922;-84
2022/08/03 03:13:28;;;;;;;;;;;;;;;17.96;100.00;100827.72;4960721;28;19934;-84
2022/08/03 03:16:03;;;;;;;;;;;;;;;17.88;100.00;100828.50;4958805;29;19923;-84
2022/08/03 03:18:33;;;;;;;;;;;;;;;17.87;100.00;100829.63;4941074;29;19929;-84
2022/08/03 03:21:02;;;;;;;;;;;;;;;17.84;100.00;100831.09;4957320;29;19930;-84
2022/08/03 03:23:36;;;;;;;;;;;;;;;17.87;100.00;100832.41;4958993;29;19923;-84
2022/08/03 03:26:09;;;;;;;;;;;;;;;17.85;100.00;100830.75;4957096;29;19930;-83
2022/08/03 03:28:42;;;;;;;;;;;;;;;17.86;100.00;100834.34;4947050;28;20364;-84
2022/08/03 03:31:17;;;;;;;;;;;;;;;17.85;100.00;100825.25;4953921;28;20288;-84
2022/08/03 03:33:52;;;;;;;;;;;;;;;17.84;100.00;100833.84;4957301;29;19923;-84
2022/08/03 03:36:20;;;;;;;;;;;;;;;17.84;100.00;100831.94;4956867;29;19922;-84
2022/08/03 03:38:53;;;;;;;;;;;;;;;17.81;100.00;100832.56;4956933;29;19923;-84
2022/08/03 03:41:20;;;;;;;;;;;;;;;17.79;100.00;100832.09;4959069;28;19929;-84
2022/08/03 03:43:49;;;;;;;;;;;;;;;17.78;100.00;100832.41;4958697;29;19922;-84
2022/08/03 03:46:22;;;;;;;;;;;;;;;17.76;100.00;100831.91;4962849;28;19929;-84
2022/08/03 03:48:56;;;;;;;;;;;;;;;17.78;100.00;100829.66;4958546;29;19969;-84
2022/08/03 03:51:29;;;;;;;;;;;;;;;17.78;100.00;100841.47;4956707;29;19923;-84
2022/08/03 03:53:58;;;;;;;;;;;;;;;17.78;100.00;100840.66;4958268;29;19922;-84
2022/08/03 03:56:27;;;;;;;;;;;;;;;17.74;100.00;100839.69;4947135;28;20259;-84
2022/08/03 03:59:00;;;;;;;;;;;;;;;17.68;100.00;100830.81;4960118;28;19951;-84
2022/08/03 04:01:33;;;;;;;;;;;;;;;17.66;100.00;100839.38;4975665;28;19937;-84
2022/08/03 04:12:51;;;;;;;;;;;;;;;17.68;100.00;100839.84;4898846;29;19943;-84
2022/08/03 04:15:20;;;;;;;;;;;;;;;17.73;100.00;100827.88;4916314;29;20339;-84
2022/08/03 04:17:55;;;;;;;;;;;;;;;17.77;100.00;100837.13;4939357;29;19922;-83
2022/08/03 04:20:30;;;;;;;;;;;;;;;17.71;100.00;100832.91;4956045;28;19930;-84
2022/08/03 04:23:04;;;;;;;;;;;;;;;17.76;100.00;100835.50;4956645;29;19929;-84
2022/08/03 04:25:33;;;;;;;;;;;;;;;17.77;100.00;100833.53;4949428;29;19926;-84
2022/08/03 04:28:07;;;;;;;;;;;;;;;17.80;100.00;100833.72;4956344;29;19953;-84
2022/08/03 04:30:46;;;;;;;;;;;;;;;17.80;100.00;100833.72;4939306;29;19923;-83
2022/08/03 04:33:14;;;;;;;;;;;;;;;17.89;100.00;100835.66;4937141;29;19946;-84
2022/08/03 04:35:49;;;;;;;;;;;;;;;17.94;100.00;100835.50;4937520;29;20269;-83
2022/08/03 04:38:24;;;;;;;;;;;;;;;17.98;100.00;100837.28;4941356;29;19923;-84
2022/08/03 04:40:59;;;;;;;;;;;;;;;18.03;100.00;100828.03;4936332;29;20377;-84
2022/08/03 04:43:32;;;;;;;;;;;;;;;18.11;100.00;100837.41;4951972;29;19930;-84
2022/08/03 04:46:06;;;;;;;;;;;;;;;18.19;100.00;100837.41;4937139;29;19923;-84
2022/08/03 04:48:40;;;;;;;;;;;;;;;18.28;100.00;100833.81;4936868;29;19934;-84
2022/08/03 04:51:15;;;;;;;;;;;;;;;18.38;100.00;100835.41;4921080;29;19923;-84
2022/08/03 04:53:43;;;;;;;;;;;;;;;18.52;100.00;100833.25;4957291;28;20386;-84
2022/08/03 04:56:11;;;;;;;;;;;;;;;18.62;100.00;100832.09;4953767;28;19927;-84
2022/08/03 04:58:44;;;;;;;;;;;;;;;18.73;100.00;100836.06;4957340;29;19928;-84
2022/08/03 05:01:19;;;;;;;;;;;;;;;18.86;100.00;100840.56;4955070;28;20363;-84
2022/08/03 05:03:52;;;;;;;;;;;;;;;18.91;100.00;100834.06;4936214;29;19934;-83
2022/08/03 05:06:26;;;;;;;;;;;;;;;19.07;100.00;100839.84;4955927;29;19923;-83
2022/08/03 05:08:59;;;;;;;;;;;;;;;19.10;100.00;100841.91;4955726;29;20366;-82
2022/08/03 05:11:32;;;;;;;;;;;;;;;19.26;100.00;100839.38;4955826;29;20296;-83
2022/08/03 05:14:04;;;;;;;;;;;;;;;19.92;100.00;100839.84;4941941;28;19936;-83
2022/08/03 05:16:32;;;;;;;;;;;;;;;21.45;100.00;100838.91;4956546;28;19923;-84
2022/08/03 05:19:05;;;;;;;;;;;;;;;23.27;100.00;100830.22;4951718;29;19929;-83
2022/08/03 05:21:35;;;;;;;;;;;;;;;22.40;100.00;100833.69;4938992;29;19922;-83
2022/08/03 05:24:08;;;;;;;;;;;;;;;23.53;100.00;100832.34;4952339;29;20473;-83
2022/08/03 05:26:40;;;;;;;;;;;;;;;23.81;100.00;100834.09;4945208;29;19929;-84
2022/08/03 05:29:13;;;;;;;;;;;;;;;22.58;100.00;100833.34;4955400;29;19922;-84
2022/08/03 05:31:41;;;;;;;;;;;;;;;22.12;100.00;100836.47;4945220;29;19945;-82
2022/08/03 05:34:14;;;;;;;;;;;;;;;20.95;100.00;100843.72;4939095;29;19922;-83
2022/08/03 05:36:48;;;;;;;;;;;;;;;20.65;100.00;100835.63;4956672;29;19923;-83
2022/08/03 05:39:16;;;;;;;;;;;;;;;20.33;100.00;100838.94;4956346;29;20291;-83
2022/08/03 05:41:44;;;;;;;;;;;;;;;19.98;100.00;100849.53;4955079;29;19929;-83
2022/08/03 05:44:17;;;;;;;;;;;;;;;19.87;100.00;100841.69;4957224;28;19922;-83
2022/08/03 05:46:50;;;;;;;;;;;;;;;19.75;100.00;100846.28;4976043;28;19933;-84
2022/08/03 05:49:18;;;;;;;;;;;;;;;19.74;100.00;100848.25;4975571;28;20294;-83
2022/08/03 05:51:52;;;;;;;;;;;;;;;19.93;100.00;100842.28;4973665;28;19933;-82
2022/08/03 05:54:26;;;;;;;;;;;;;;;20.06;100.00;100845.88;4955509;28;19922;-81
2022/08/03 05:57:01;;;;;;;;;;;;;;;20.22;100.00;100837.75;4954289;29;20415;-84
2022/08/03 05:59:33;;;;;;;;;;;;;;;20.40;100.00;100841.13;4938475;29;19938;-82
2022/08/03 06:02:01;;;;;;;;;;;;;;;20.29;100.00;100839.97;4937899;29;19922;-82
2022/08/03 06:04:34;;;;;;;;;;;;;;;20.58;100.00;100850.03;4955221;28;19923;-84
2022/08/03 06:07:03;;;;;;;;;;;;;;;20.75;100.00;100849.03;4936953;29;19949;-83
2022/08/03 06:09:32;;;;;;;;;;;;;;;20.78;100.00;100853.84;4952949;29;19922;-83
2022/08/03 06:12:05;;;;;;;;;;;;;;;20.79;100.00;100844.41;4935847;29;20390;-83
2022/08/03 06:14:33;;;;;;;;;;;;;;;20.96;100.00;100842.56;4940281;28;19938;-84
2022/08/03 06:17:01;;;;;;;;;;;;;;;21.09;100.00;100849.72;4951524;28;19934;-83
2022/08/03 06:19:34;;;;;;;;;;;;;;;21.18;100.00;100850.38;4950422;28;19926;-84
2022/08/03 06:22:02;;;;;;;;;;;;;;;21.22;100.00;100839.44;4955357;28;19922;-83
2022/08/03 06:24:36;;;;;;;;;;;;;;;21.21;100.00;100844.16;4919290;29;20711;-84
2022/08/03 06:27:11;;;;;;;;;;;;;;;21.29;100.00;100853.47;4919175;29;19922;-83
2022/08/03 06:29:43;;;;;;;;;;;;;;;21.46;100.00;100846.06;4916296;29;19930;-85
2022/08/03 06:32:14;;;;;;;;;;;;;;;21.56;100.00;100851.16;4914404;29;19931;-84
2022/08/03 06:34:42;;;;;;;;;;;;;;;21.79;100.00;100851.41;4891955;29;19930;-80
2022/08/03 06:37:10;;;;;;;;;;;;;;;21.85;100.00;100846.44;4911867;29;20392;-84
2022/08/03 06:39:45;;;;;;;;;;;;;;;22.02;100.00;100850.84;4907778;29;19930;-84
2022/08/03 06:42:18;;;;;;;;;;;;;;;22.09;100.00;100856.59;4904985;29;20273;-84
2022/08/03 06:44:51;;;;;;;;;;;;;;;22.25;100.00;100845.53;4914815;29;19930;-81
2022/08/03 06:47:24;;;;;;;;;;;;;;;22.30;100.00;100859.13;4913382;29;19930;-83
2022/08/03 06:49:57;;;;;;;;;;;;;;;22.46;100.00;100850.84;4919521;29;19930;-82
2022/08/03 06:52:30;;;;;;;;;;;;;;;22.55;100.00;100850.69;4917510;29;19930;-85
2022/08/03 06:55:05;;;;;;;;;;;;;;;22.66;100.00;100853.72;4905677;29;19931;-83
2022/08/03 06:57:38;;;;;;;;;;;;;;;22.83;100.00;100856.13;4904290;29;19931;-86
2022/08/03 07:00:08;;;;;;;;;;;;;;;22.86;100.00;100852.63;4919438;29;20300;-86
2022/08/03 07:02:41;;;;;;;;;;;;;;;22.98;100.00;100862.00;4912411;29;19931;-85
2022/08/03 07:05:10;;;;;;;;;;;;;;;23.00;100.00;100854.16;4917981;29;20021;-84
2022/08/03 07:07:38;;;;;;;;;;;;;;;23.10;100.00;100859.94;4918098;29;20626;-84
2022/08/03 07:10:14;;;;;;;;;;;;;;;23.18;100.00;100854.59;4915360;29;19941;-84
2022/08/03 07:12:47;;;;;;;;;;;;;;;23.24;100.00;100862.28;4916210;29;19930;-83
2022/08/03 07:15:17;;;;;;;;;;;;;;;23.43;100.00;100863.47;4915116;29;19931;-83
2022/08/03 07:17:45;;;;;;;;;;;;;;;23.60;100.00;100860.28;4920881;29;20578;-82
2022/08/03 07:20:14;;;;;;;;;;;;;;;23.62;100.00;100862.69;4914990;29;19938;-87
2022/08/03 07:22:47;;;;;;;;;;;;;;;23.78;100.00;100851.47;4920106;29;20313;-85
2022/08/03 07:25:16;;;;;;;;;;;;;;;23.86;100.00;100866.34;4891088;28;19923;-86
2022/08/03 07:27:49;;;;;;;;;;;;;;;24.07;100.00;100858.47;4915363;29;19931;-84
2022/08/03 07:30:22;;;;;;;;;;;;;;;24.20;100.00;100856.31;4902408;29;19931;-83
2022/08/03 07:32:55;;;;;;;;;;;;;;;24.14;100.00;100851.41;4911153;29;19926;-83
2022/08/03 07:35:30;;;;;;;;;;;;;;;24.28;100.00;100857.25;4899392;29;19930;-83
2022/08/03 07:37:58;;;;;;;;;;;;;;;24.45;100.00;100856.75;4911956;29;19930;-83
2022/08/03 07:40:33;;;;;;;;;;;;;;;24.53;100.00;100862.44;4906056;29;19931;-84
2022/08/03 07:43:06;;;;;;;;;;;;;;;24.69;100.00;100854.00;4914204;29;19934;-83
2022/08/03 07:45:39;;;;;;;;;;;;;;;24.73;100.00;100852.06;4907564;29;19930;-82
2022/08/03 07:48:12;;;;;;;;;;;;;;;24.76;100.00;100849.34;4908316;29;19950;-84
2022/08/03 07:50:45;;;;;;;;;;;;;;;24.89;100.00;100861.06;4909688;29;19934;-84
2022/08/03 07:53:14;;;;;;;;;;;;;;;24.97;100.00;100850.88;4914058;29;19931;-85
2022/08/03 07:55:48;;;;;;;;;;;;;;;25.05;100.00;100858.16;4914057;29;19937;-81
2022/08/03 07:58:22;;;;;;;;;;;;;;;24.99;100.00;100850.47;4896020;29;19946;-86
2022/08/03 08:00:55;;;;;;;;;;;;;;;25.26;100.00;100857.66;4900255;29;19953;-84
2022/08/03 08:03:23;;;;;;;;;;;;;;;25.40;100.00;100851.50;4919708;29;19931;-85
2022/08/03 08:05:52;;;;;;;;;;;;;;;25.66;99.28;100849.03;4919130;29;20520;-86
2022/08/03 08:08:25;;;;;;;;;;;;;;;25.74;93.08;100856.28;4910269;29;19931;-82
2022/08/03 08:10:54;;;;;;;;;;;;;;;25.70;94.24;100858.22;4913159;29;19941;-84
2022/08/03 08:13:27;;;;;;;;;;;;;;;25.85;98.83;100845.28;4917630;29;19938;-83
2022/08/03 08:16:01;;;;;;;;;;;;;;;25.92;96.58;100850.91;4917543;29;19931;-83
2022/08/03 08:18:29;;;;;;;;;;;;;;;26.08;94.92;100847.94;4911612;29;19938;-83
2022/08/03 08:21:02;;;;;;;;;;;;;;;26.15;95.32;100850.81;4899580;29;19931;-84
2022/08/03 08:23:33;;;;;;;;;;;;;;;26.06;94.84;100841.94;4917205;29;21322;-84
2022/08/03 08:26:07;;;;;;;;;;;;;;;26.05;91.74;100854.28;4880240;29;19926;-84
2022/08/03 08:28:41;;;;;;;;;;;;;;;26.17;93.13;100847.63;4914462;29;19930;-83
2022/08/03 08:31:09;;;;;;;;;;;;;;;26.35;88.99;100847.78;4908405;29;19938;-83
2022/08/03 08:33:37;;;;;;;;;;;;;;;26.42;88.73;100848.69;4914388;29;19927;-84
2022/08/03 08:36:05;;;;;;;;;;;;;;;26.55;91.05;100856.75;4904252;29;19930;-85
2022/08/03 08:38:35;;;;;;;;;;;;;;;26.74;86.42;100844.59;4906174;29;19941;-83
2022/08/03 08:41:13;;;;;;;;;;;;;;;26.87;84.99;100851.44;4915418;29;20465;-84
2022/08/03 08:43:46;;;;;;;;;;;;;;;26.90;81.91;100847.91;4913853;29;19926;-84
2022/08/03 08:46:20;;;;;;;;;;;;;;;27.01;87.18;100847.16;4921911;29;19931;-85
2022/08/03 08:48:54;;;;;;;;;;;;;;;26.90;85.02;100847.91;4900199;29;19931;-84
2022/08/03 08:51:28;;;;;;;;;;;;;;;26.77;86.39;100854.97;4910824;29;19930;-83
2022/08/03 08:54:01;;;;;;;;;;;;;;;26.73;85.70;100849.34;4913464;29;19931;-84
2022/08/03 08:56:32;;;;;;;;;;;;;;;26.76;90.36;100844.97;4912084;29;19930;-84
2022/08/03 08:59:01;;;;;;;;;;;;;;;26.96;87.05;100840.75;4899681;29;19930;-83
2022/08/03 09:01:29;;;;;;;;;;;;;;;27.09;89.41;100849.59;4923073;29;20273;-85
2022/08/03 09:04:05;;;;;;;;;;;;;;;27.11;85.15;100847.22;4913108;29;20438;-84
2022/08/03 09:06:33;;;;;;;;;;;;;;;27.14;86.95;100837.28;4909408;29;20631;-84
2022/08/03 09:09:07;;;;;;;;;;;;;;;27.24;87.79;100833.72;4901398;29;19930;-84
2022/08/03 09:11:43;;;;;;;;;;;;;;;27.43;86.76;100846.63;4923016;29;19926;-84
2022/08/03 09:14:11;;;;;;;;;;;;;;;27.34;83.25;100840.56;4916170;28;19937;-83
2022/08/03 09:16:55;;;;;;;;;;;;;;;27.48;87.11;100843.47;4913516;29;19930;-84
2022/08/03 09:19:28;;;;;;;;;;;;;;;27.64;86.12;100845.91;4893376;29;19960;-84
2022/08/03 09:22:08;;;;;;;;;;;;;;;27.59;84.10;100851.09;4892766;29;19938;-83
2022/08/03 09:24:54;;;;;;;;;;;;;;;27.60;82.10;100847.88;4881687;28;20737;-86
2022/08/03 09:27:24;;;;;;;;;;;;;;;27.64;84.42;100840.31;4905438;29;20832;-83
2022/08/03 09:29:57;;;;;;;;;;;;;;;27.61;78.06;100840.31;4907131;29;19930;-84
2022/08/03 09:32:30;;;;;;;;;;;;;;;27.63;77.65;100835.94;4917176;29;19927;-85
2022/08/03 09:35:04;;;;;;;;;;;;;;;27.73;85.45;100853.13;4911828;29;19982;-83
2022/08/03 09:37:37;;;;;;;;;;;;;;;27.63;81.58;100838.75;4890128;29;19931;-84
2022/08/03 09:40:05;;;;;;;;;;;;;;;27.54;80.02;100843.06;4911105;29;19930;-83
2022/08/03 09:42:37;;;;;;;;;;;;;;;27.71;86.22;100855.53;4895919;29;19930;-82
2022/08/03 09:45:05;;;;;;;;;;;;;;;27.71;83.83;100841.56;4915431;29;19931;-85
2022/08/03 09:47:39;;;;;;;;;;;;;;;27.67;84.29;100844.31;4912029;29;19931;-83
2022/08/03 09:50:08;;;;;;;;;;;;;;;27.44;80.68;100839.84;4910668;29;19937;-82
2022/08/03 09:52:42;;;;;;;;;;;;;;;27.38;85.38;100840.63;4910874;29;20473;-84
2022/08/03 09:55:13;;;;;;;;;;;;;;;27.44;88.68;100828.66;4913711;29;19931;-84
2022/08/03 09:57:47;;;;;;;;;;;;;;;27.47;85.96;100832.69;4910509;29;19930;-85
2022/08/03 10:00:21;;;;;;;;;;;;;;;27.62;82.48;100831.53;4906050;29;19930;-84
2022/08/03 10:02:49;;;;;;;;;;;;;;;27.67;83.85;100827.56;4904040;29;20402;-83
2022/08/03 10:05:31;;;;;;;;;;;;;;;27.76;79.44;100819.59;4906210;29;19931;-83
2022/08/03 10:08:00;;;;;;;;;;;;;;;27.76;78.70;100821.56;4908920;29;19937;-84
2022/08/03 10:10:41;;;;;;;;;;;;;;;27.97;82.09;100826.44;4913559;29;19926;-86
2022/08/03 10:13:16;;;;;;;;;;;;;;;28.20;78.76;100817.72;4912889;29;19931;-85
2022/08/03 10:15:49;;;;;;;;;;;;;;;28.28;81.17;100819.34;4899729;29;20633;-86
2022/08/03 10:18:17;;;;;;;;;;;;;;;28.26;79.55;100815.31;4906281;29;19931;-85
2022/08/03 10:20:51;;;;;;;;;;;;;;;28.41;75.16;100814.13;4907659;29;19931;-84
2022/08/03 10:23:29;;;;;;;;;;;;;;;28.48;81.47;100810.53;4893492;29;20214;-84
2022/08/03 10:26:02;;;;;;;;;;;;;;;28.61;79.97;100806.09;4883058;29;19946;-84
2022/08/03 10:28:35;;;;;;;;;;;;;;;28.69;80.05;100814.56;4908770;29;19930;-84
2022/08/03 10:31:06;;;;;;;;;;;;;;;28.87;76.78;100811.72;4894002;29;19931;-86
2022/08/03 10:33:42;;;;;;;;;;;;;;;28.79;75.90;100819.31;4910823;29;19937;-84
2022/08/03 10:36:10;;;;;;;;;;;;;;;28.75;78.48;100815.72;4907391;29;20292;-83
2022/08/03 10:38:51;;;;;;;;;;;;;;;28.86;75.06;100794.09;4892043;29;19938;-84
2022/08/03 10:41:26;;;;;;;;;;;;;;;28.80;75.04;100802.13;4896663;29;19930;-87
2022/08/03 10:44:03;;;;;;;;;;;;;;;28.90;71.74;100800.50;4907289;29;19931;-84
2022/08/03 10:46:37;;;;;;;;;;;;;;;29.11;77.83;100793.25;4914411;29;19942;-83
2022/08/03 10:49:12;;;;;;;;;;;;;;;28.66;73.75;100813.34;4916370;29;19930;-86
2022/08/03 10:51:41;;;;;;;;;;;;;;;28.73;75.66;100804.16;4908742;29;19938;-85
2022/08/03 10:54:32;;;;;;;;;;;;;;;28.87;76.08;100806.91;4911782;29;19938;-82
2022/08/03 11:00:02;;;;;;;;;;;;;;;29.03;72.68;100795.28;4905048;29;19943;-84
2022/08/03 11:02:54;;;;;;;;;;;;;;;29.21;74.45;100789.63;4919936;29;20277;-84
2022/08/03 11:05:28;;;;;;;;;;;;;;;29.33;76.90;100800.41;4915023;29;21209;-84
2022/08/03 11:08:19;;;;;;;;;;;;;;;29.32;75.18;100798.81;4911136;29;19930;-83
2022/08/03 11:10:53;;;;;;;;;;;;;;;29.23;69.30;100797.63;4911830;29;19926;-84
2022/08/03 11:13:29;;;;;;;;;;;;;;;29.53;76.40;100794.31;4901916;29;19953;-84
2022/08/03 11:16:19;;;;;;;5.28;1.40;;;;;;;29.55;75.91;100786.28;4913006;29;19931;-84
2022/08/03 11:18:56;;;;;;;1.67;1.27;;;;;;;29.83;74.74;100807.75;4908193;29;20059;-83
2022/08/03 11:21:58;;;;;;;4.40;1.27;;;;;;;29.51;70.86;100796.72;4909018;29;20552;-84
2022/08/03 11:24:57;;;;;;;2.60;1.10;;;;;;;29.68;71.75;100804.25;4888008;28;20064;-83
2022/08/03 11:27:32;;;;;;;4.22;1.33;;;;;;;29.42;71.94;100790.75;4898362;29;20062;-85
2022/08/03 11:30:08;;;;;;;2.03;1.17;;;;;;;29.58;70.21;100793.91;4899643;29;20055;-84
2022/08/03 11:33:01;;;;;;;2.75;1.15;;;;;;;29.73;73.95;100794.59;4906817;29;20052;-83
2022/08/03 11:35:35;;;;;;;2.65;1.15;;;;;;;29.65;73.36;100796.66;4896089;29;20587;-84
2022/08/03 11:38:08;;;;;;;2.97;1.20;;;;;;;29.76;75.25;100787.38;4915711;29;20059;-83
2022/08/03 11:40:43;;;;;;;2.97;1.25;;;;;;;29.98;69.21;100790.84;4910371;29;20474;-84
2022/08/03 11:43:45;;;;;;;3.95;1.40;;;;;;;30.08;67.83;100792.81;4913870;29;20063;-84
2022/08/03 11:46:20;;;;;;;3.33;1.42;;;;;;;29.99;72.37;100790.44;4914985;29;20055;-84
2022/08/03 11:49:04;;;;;;;4.72;1.33;;;;;;;29.96;66.22;100802.50;4898097;29;20439;-82
2022/08/03 11:51:39;;;;;;;3.35;1.30;;;;;;;30.23;71.93;100784.25;4896400;29;20793;-84
2022/08/03 11:54:12;;;;;;;3.90;1.40;;;;;;;30.38;66.31;100796.97;4903425;29;20435;-86
2022/08/03 11:56:47;;;;;;;4.03;1.20;;;;;;;30.33;64.83;100789.00;4893612;29;20443;-85
2022/08/03 11:59:31;;;;;;;2.88;1.20;;;;;;;30.44;64.48;100786.94;4891793;29;20443;-84
2022/08/03 12:02:09;;;;;;;4.07;1.33;;;;;;;30.39;62.44;100790.13;4909363;29;21261;-83
2022/08/03 12:04:57;;;;;;;2.93;1.20;;;;;;;30.61;66.09;100779.53;4912812;29;20433;-85
2022/08/03 12:07:30;;;;;;;5.15;1.50;;;;;;;30.28;62.69;100779.00;4909451;29;20446;-83
2022/08/03 12:10:06;;;;;;;4.80;1.25;;;;;;;30.36;66.82;100780.53;4910365;29;20456;-84
2022/08/03 12:12:41;;;;;;;2.97;1.15;;;;;;;30.47;67.60;100774.84;4918914;29;20435;-83
2022/08/03 12:15:14;;;;;;;4.03;1.30;;;;;;;30.47;63.43;100777.66;4909502;29;20439;-83
2022/08/03 12:17:48;;;;;;;3.38;1.30;;;;;;;30.43;69.41;100778.91;4892155;29;20971;-84
2022/08/03 12:20:24;;;;;;;4.35;1.45;;;;;;;29.97;67.28;100776.03;4908590;29;20447;-85
2022/08/03 12:23:04;;;;;;;2.72;1.27;;;;;;;30.03;69.90;100779.22;4919067;29;20430;-83
2022/08/03 12:25:39;;;;;;;4.90;1.43;;;;;;;29.61;67.63;100773.44;4873995;29;21117;-86
2022/08/03 12:28:10;;;;;;;2.83;1.20;;;;;;;29.92;71.07;100759.63;4912511;29;20436;-86
2022/08/03 12:30:44;;;;;;;3.50;1.20;;;;;;;30.34;63.57;100771.75;4916368;29;20466;-82
2022/08/03 12:33:22;;;;;;;2.70;1.13;;;;;;;30.47;64.13;100758.00;4912400;29;20435;-82
2022/08/03 12:36:04;;;;;;;3.47;1.40;;;;;;;30.77;63.31;100772.56;4890649;29;20440;-83
2022/08/03 12:38:39;;;;;;;2.72;1.20;;;;;;;30.83;66.54;100768.88;4894613;29;20439;-82
2022/08/03 12:41:14;;;;;;;3.30;1.23;;;;;;;30.74;59.21;100759.34;4893909;29;21880;-83
2022/08/03 12:43:48;;;;;;;3.05;1.00;;;;;;;30.80;58.47;100758.47;4894884;29;20448;-83
2022/08/03 12:46:22;;;;;;;1.57;1.00;;;;;;;30.84;60.43;100764.06;4889333;29;20859;-82
2022/08/03 12:49:15;;;;;;;3.92;1.30;;;;;;;30.96;61.49;100774.78;4914456;29;20439;-85
2022/08/03 12:52:05;;;;;;;5.03;1.40;;;;;;;30.70;55.78;100773.41;4916998;29;20435;-85
2022/08/03 12:54:38;;;;;;;4.60;1.40;;;;;;;30.76;58.98;100768.16;4917617;29;20453;-85
2022/08/03 12:57:13;;;;;;;2.92;1.00;;;;;;;30.77;59.64;100759.31;4898792;29;20466;-83
2022/08/03 12:59:45;;;;;;;2.08;1.00;;;;;;;30.95;58.14;100758.31;4916602;29;20435;-84
2022/08/03 13:02:15;;;;;;;4.13;1.20;;;;;;;31.01;56.00;100763.06;4893434;29;20440;-85